createdAt,value
2017-08-08T00:25:54.737Z,0
2017-08-08T00:26:55.373Z,0
2017-08-08T00:27:56.013Z,0
2017-08-08T00:28:56.646Z,0
2017-08-08T00:29:57.482Z,0
2017-08-08T00:30:58.114Z,0
2017-08-08T00:31:58.760Z,0
2017-08-08T00:32:59.386Z,0
2017-08-08T00:34:00.031Z,0
2017-08-08T00:35:00.663Z,0
2017-08-08T00:36:01.308Z,0
2017-08-08T00:37:01.935Z,0
2017-08-08T00:38:02.721Z,0
2017-08-08T00:39:03.361Z,0
2017-08-08T00:40:04.000Z,0
2017-08-08T00:41:04.636Z,0
2017-08-08T00:42:05.274Z,0
2017-08-08T00:43:05.912Z,0
2017-08-08T00:44:06.544Z,0
2017-08-08T00:45:07.178Z,0
2017-08-08T00:48:06.789Z,0
2017-08-08T00:51:40.375Z,0
2017-08-08T00:52:40.972Z,0
2017-08-08T01:02:27.722Z,0
2017-08-08T01:03:28.360Z,0
2017-08-08T01:04:28.998Z,0
2017-08-08T01:11:08.446Z,0
2017-08-08T01:13:42.909Z,0
2017-08-08T01:16:51.114Z,0
2017-08-08T01:19:18.507Z,0
2017-08-08T01:20:19.141Z,0
2017-08-08T01:25:28.985Z,0
2017-08-08T01:35:12.719Z,0
2017-08-08T01:47:40.117Z,0
2017-08-08T01:48:40.751Z,0
2017-08-08T01:49:41.392Z,0
2017-08-08T01:50:42.026Z,0
2017-08-08T01:51:42.660Z,0
2017-08-08T01:52:43.492Z,0
2017-08-08T01:53:44.134Z,0
2017-08-08T01:54:44.818Z,0
2017-08-08T01:55:45.464Z,0
2017-08-08T01:56:46.096Z,0
2017-08-08T01:57:46.742Z,0
2017-08-08T01:58:47.368Z,0
2017-08-08T01:59:48.003Z,0
2017-08-08T02:00:48.841Z,0
2017-08-08T02:01:49.479Z,0
2017-08-08T02:02:50.115Z,0
2017-08-08T02:03:50.753Z,0
2017-08-08T02:04:51.394Z,0
2017-08-08T02:05:52.023Z,0
2017-08-08T02:06:52.656Z,0
2017-08-08T02:07:53.296Z,0
2017-08-08T02:08:53.933Z,0
2017-08-08T02:09:54.767Z,0
2017-08-08T02:10:55.401Z,0
2017-08-08T02:11:56.040Z,0
2017-08-08T02:12:56.677Z,0
2017-08-08T02:13:57.314Z,0
2017-08-08T02:14:57.948Z,0
2017-08-08T02:15:58.590Z,0
2017-08-08T02:16:59.220Z,0
2017-08-08T02:18:00.007Z,0
2017-08-08T02:19:00.639Z,0
2017-08-08T02:20:01.271Z,0
2017-08-08T02:21:01.907Z,0
2017-08-08T02:22:02.552Z,0
2017-08-08T02:23:03.187Z,0
2017-08-08T02:24:03.817Z,0
2017-08-08T02:25:04.465Z,0
2017-08-08T02:26:05.303Z,0
2017-08-08T02:27:05.933Z,0
2017-08-08T02:28:06.574Z,0
2017-08-08T02:29:07.209Z,0
2017-08-08T02:30:07.841Z,0
2017-08-08T02:31:08.474Z,0
2017-08-08T02:32:09.116Z,0
2017-08-08T02:33:09.746Z,0
2017-08-08T02:34:10.581Z,0
2017-08-08T02:35:11.219Z,0
2017-08-08T02:36:11.853Z,0
2017-08-08T02:37:12.487Z,0
2017-08-08T02:38:13.125Z,0
2017-08-08T02:39:13.759Z,0
2017-08-08T02:40:14.397Z,0
2017-08-08T02:41:15.087Z,0
2017-08-08T02:42:15.951Z,0
2017-08-08T02:43:16.557Z,0
2017-08-08T02:44:17.189Z,0
2017-08-08T02:45:17.823Z,0
2017-08-08T02:46:18.463Z,0
2017-08-08T02:47:19.103Z,0
2017-08-08T02:48:19.737Z,0
2017-08-08T02:49:20.368Z,0
2017-08-08T02:50:21.019Z,0
2017-08-08T02:51:21.849Z,0
2017-08-08T02:52:22.533Z,0
2017-08-08T02:53:23.166Z,0
2017-08-08T02:54:23.800Z,0
2017-08-08T02:55:24.441Z,0
2017-08-08T02:56:25.071Z,0
2017-08-08T02:57:25.709Z,0
2017-08-08T02:58:26.345Z,0
2017-08-08T02:59:27.175Z,0
2017-08-08T03:00:27.815Z,0
2017-08-08T03:01:28.450Z,0
2017-08-08T03:02:29.085Z,0
2017-08-08T03:03:29.718Z,0
2017-08-08T03:04:30.349Z,0
2017-08-08T03:05:31.007Z,0
2017-08-08T03:06:31.630Z,0
2017-08-08T03:07:32.469Z,0
2017-08-08T03:08:33.105Z,0
2017-08-08T03:09:33.742Z,0
2017-08-08T03:10:34.376Z,0
2017-08-08T03:11:35.008Z,0
2017-08-08T03:12:35.655Z,0
2017-08-08T03:13:36.280Z,0
2017-08-08T03:14:36.916Z,0
2017-08-08T03:15:37.856Z,0
2017-08-08T03:16:38.488Z,0
2017-08-08T03:17:39.128Z,0
2017-08-08T03:18:39.760Z,0
2017-08-08T03:19:40.402Z,0
2017-08-08T03:20:41.032Z,0
2017-08-08T03:21:41.665Z,0
2017-08-08T03:22:42.301Z,0
2017-08-08T03:23:42.934Z,0
2017-08-08T03:24:43.715Z,0
2017-08-08T03:25:44.356Z,0
2017-08-08T03:26:44.992Z,0
2017-08-08T03:27:45.631Z,0
2017-08-08T03:28:46.260Z,0
2017-08-08T03:29:46.900Z,0
2017-08-08T03:30:47.536Z,0
2017-08-08T03:31:48.171Z,0
2017-08-08T03:32:49.004Z,0
2017-08-08T03:33:49.640Z,0
2017-08-08T03:34:50.275Z,0
2017-08-08T03:35:50.913Z,0
2017-08-08T03:36:51.543Z,0
2017-08-08T03:37:52.186Z,0
2017-08-08T03:38:52.817Z,0
2017-08-08T03:39:53.454Z,0
2017-08-08T03:40:54.291Z,0
2017-08-08T03:41:54.929Z,0
2017-08-08T03:42:55.559Z,0
2017-08-08T03:43:56.193Z,0
2017-08-08T03:44:56.830Z,0
2017-08-08T03:45:57.468Z,0
2017-08-08T03:46:58.100Z,0
2017-08-08T03:47:58.739Z,0
2017-08-08T03:48:59.523Z,0
2017-08-08T03:50:00.165Z,0
2017-08-08T03:51:00.847Z,0
2017-08-08T03:52:01.487Z,0
2017-08-08T03:53:02.125Z,0
2017-08-08T03:54:02.756Z,0
2017-08-08T03:55:03.396Z,0
2017-08-08T03:56:04.035Z,0
2017-08-08T03:57:04.867Z,0
2017-08-08T03:58:05.503Z,0
2017-08-08T03:59:06.140Z,0
2017-08-08T04:00:06.772Z,0
2017-08-08T04:01:07.409Z,0
2017-08-08T04:02:08.041Z,0
2017-08-08T04:03:08.675Z,0
2017-08-08T04:04:09.319Z,0
2017-08-08T04:05:09.947Z,0
2017-08-08T04:06:10.799Z,0
2017-08-08T04:07:11.425Z,0
2017-08-08T04:08:12.062Z,0
2017-08-08T04:09:12.699Z,0
2017-08-08T04:10:13.381Z,0
2017-08-08T04:11:14.021Z,0
2017-08-08T04:12:14.657Z,0
2017-08-08T04:13:15.295Z,0
2017-08-08T04:14:16.178Z,0
2017-08-08T04:15:16.822Z,0
2017-08-08T04:16:17.457Z,0
2017-08-08T04:17:18.089Z,0
2017-08-08T04:18:18.725Z,0
2017-08-08T04:19:19.356Z,0
2017-08-08T04:20:19.996Z,0
2017-08-08T04:21:20.629Z,0
2017-08-08T04:22:21.418Z,0
2017-08-08T04:23:22.051Z,0
2017-08-08T04:24:22.690Z,0
2017-08-08T04:25:23.321Z,0
2017-08-08T04:26:23.954Z,0
2017-08-08T04:27:24.589Z,0
2017-08-08T04:28:25.222Z,0
2017-08-08T04:29:25.858Z,0
2017-08-08T04:30:26.700Z,0
2017-08-08T04:31:27.335Z,0
2017-08-08T04:32:27.972Z,0
2017-08-08T04:33:28.622Z,0
2017-08-08T04:34:29.250Z,0
2017-08-08T04:35:29.886Z,0
2017-08-08T04:36:30.519Z,0
2017-08-08T04:37:31.154Z,0
2017-08-08T04:38:31.788Z,0
2017-08-08T04:39:32.628Z,0
2017-08-08T04:40:33.259Z,0
2017-08-08T04:41:33.899Z,0
2017-08-08T04:42:34.531Z,0
2017-08-08T04:43:35.170Z,0
2017-08-08T04:44:35.801Z,0
2017-08-08T04:45:36.435Z,0
2017-08-08T04:46:37.072Z,0
2017-08-08T04:47:37.904Z,0
2017-08-08T04:48:38.546Z,0
2017-08-08T04:49:39.176Z,0
2017-08-08T04:50:39.820Z,0
2017-08-08T04:51:40.454Z,0
2017-08-08T04:52:41.087Z,0
2017-08-08T04:53:41.725Z,0
2017-08-08T04:54:42.357Z,0
2017-08-08T04:55:43.149Z,0
2017-08-08T04:56:43.790Z,0
2017-08-08T04:57:44.429Z,0
2017-08-08T04:58:45.123Z,0
2017-08-08T04:59:45.759Z,0
2017-08-08T05:00:46.389Z,0
2017-08-08T05:01:47.024Z,0
2017-08-08T05:02:47.658Z,0
2017-08-08T05:03:48.493Z,0
2017-08-08T05:04:49.134Z,0
2017-08-08T05:05:49.768Z,0
2017-08-08T05:06:50.401Z,0
2017-08-08T05:07:51.035Z,0
2017-08-08T05:08:51.674Z,0
2017-08-08T05:09:52.307Z,0
2017-08-08T05:10:52.946Z,0
2017-08-08T05:11:53.739Z,0
2017-08-08T05:12:54.370Z,0
2017-08-08T05:13:55.015Z,0
2017-08-08T05:14:55.642Z,0
2017-08-08T05:15:56.281Z,0
2017-08-08T05:16:56.919Z,0
2017-08-08T05:17:57.554Z,0
2017-08-08T05:18:58.187Z,0
2017-08-08T05:19:58.826Z,0
2017-08-08T05:20:59.712Z,0
2017-08-08T05:22:00.349Z,0
2017-08-08T05:23:00.980Z,0
2017-08-08T05:24:01.613Z,0
2017-08-08T05:25:02.248Z,0
2017-08-08T05:26:02.883Z,0
2017-08-08T05:27:03.519Z,0
2017-08-08T05:28:04.160Z,0
2017-08-08T05:29:05.092Z,0
2017-08-08T05:30:05.725Z,0
2017-08-08T05:31:06.359Z,0
2017-08-08T05:32:06.994Z,0
2017-08-08T05:33:07.633Z,0
2017-08-08T05:34:08.271Z,0
2017-08-08T05:35:08.908Z,0
2017-08-08T05:36:09.540Z,0
2017-08-08T05:37:10.423Z,0
2017-08-08T05:38:11.062Z,0
2017-08-08T05:39:11.701Z,0
2017-08-08T05:40:12.335Z,0
2017-08-08T05:41:12.969Z,0
2017-08-08T05:42:13.603Z,0
2017-08-08T05:43:14.238Z,0
2017-08-08T05:44:14.871Z,0
2017-08-08T05:45:15.861Z,0
2017-08-08T05:46:16.497Z,0
2017-08-08T05:47:17.135Z,0
2017-08-08T05:48:17.768Z,0
2017-08-08T05:49:18.403Z,0
2017-08-08T05:50:19.042Z,0
2017-08-08T05:51:19.674Z,0
2017-08-08T05:52:20.310Z,0
2017-08-08T05:53:20.949Z,0
2017-08-08T05:54:21.781Z,0
2017-08-08T05:55:22.421Z,0
2017-08-08T05:56:23.057Z,0
2017-08-08T05:57:23.685Z,0
2017-08-08T05:58:24.326Z,0
2017-08-08T05:59:24.955Z,0
2017-08-08T06:00:25.591Z,0
2017-08-08T06:01:26.236Z,0
2017-08-08T06:02:27.022Z,0
2017-08-08T06:03:27.658Z,0
2017-08-08T06:04:28.291Z,0
2017-08-08T06:05:28.924Z,0
2017-08-08T06:06:29.563Z,0
2017-08-08T06:07:30.193Z,0
2017-08-08T06:08:30.839Z,0
2017-08-08T06:09:31.471Z,0
2017-08-08T06:10:32.301Z,0
2017-08-08T06:11:32.942Z,0
2017-08-08T06:12:33.579Z,0
2017-08-08T06:13:34.216Z,0
2017-08-08T06:14:34.846Z,0
2017-08-08T06:15:35.488Z,0
2017-08-08T06:16:36.118Z,0
2017-08-08T06:17:36.754Z,0
2017-08-08T06:18:37.538Z,0
2017-08-08T06:19:38.172Z,0
2017-08-08T06:20:38.806Z,0
2017-08-08T06:21:39.445Z,0
2017-08-08T06:22:40.076Z,0
2017-08-08T06:23:40.709Z,0
2017-08-08T06:24:41.346Z,0
2017-08-08T06:25:41.978Z,0
2017-08-08T06:26:42.869Z,0
2017-08-08T06:27:43.501Z,0
2017-08-08T06:28:44.134Z,0
2017-08-08T06:29:44.778Z,0
2017-08-08T06:30:45.412Z,0
2017-08-08T06:31:46.045Z,0
2017-08-08T06:32:46.676Z,0
2017-08-08T06:33:47.318Z,0
2017-08-08T06:34:47.959Z,0
2017-08-08T06:35:48.738Z,0
2017-08-08T06:36:49.388Z,0
2017-08-08T06:37:50.013Z,0
2017-08-08T06:38:50.654Z,0
2017-08-08T06:39:51.286Z,0
2017-08-08T06:40:51.928Z,0
2017-08-08T06:41:52.555Z,0
2017-08-08T06:42:53.190Z,0
2017-08-08T06:43:54.074Z,0
2017-08-08T06:44:54.708Z,0
2017-08-08T06:45:55.350Z,0
2017-08-08T06:46:55.987Z,0
2017-08-08T06:47:56.623Z,0
2017-08-08T06:48:57.260Z,0
2017-08-08T06:49:57.898Z,0
2017-08-08T06:50:58.534Z,0
2017-08-08T06:51:59.320Z,0
2017-08-08T06:52:59.958Z,0
2017-08-08T06:54:00.594Z,0
2017-08-08T06:55:01.230Z,0
2017-08-08T06:56:01.868Z,0
2017-08-08T06:57:02.506Z,0
2017-08-08T06:58:03.137Z,0
2017-08-08T06:59:03.778Z,0
2017-08-08T07:00:04.608Z,0
2017-08-08T07:01:05.240Z,0
2017-08-08T07:02:05.874Z,0
2017-08-08T07:03:06.510Z,0
2017-08-08T07:04:07.143Z,0
2017-08-08T07:05:07.777Z,0
2017-08-08T07:06:08.413Z,0
2017-08-08T07:07:09.048Z,0
2017-08-08T07:08:09.681Z,0
2017-08-08T07:09:10.470Z,0
2017-08-08T07:10:11.106Z,0
2017-08-08T07:11:11.743Z,0
2017-08-08T07:12:12.375Z,0
2017-08-08T07:13:13.012Z,0
2017-08-08T07:14:13.649Z,0
2017-08-08T07:15:14.286Z,0
2017-08-08T07:16:14.924Z,0
2017-08-08T07:17:15.761Z,0
2017-08-08T07:18:16.396Z,0
2017-08-08T07:19:17.036Z,0
2017-08-08T07:20:17.673Z,0
2017-08-08T07:21:18.309Z,0
2017-08-08T07:22:18.940Z,0
2017-08-08T07:23:19.573Z,0
2017-08-08T07:24:20.210Z,0
2017-08-08T07:25:21.093Z,0
2017-08-08T07:26:21.725Z,0
2017-08-08T07:27:22.361Z,0
2017-08-08T07:28:23.005Z,0
2017-08-08T07:29:23.633Z,0
2017-08-08T07:30:24.268Z,0
2017-08-08T07:31:24.908Z,0
2017-08-08T07:32:25.541Z,0
2017-08-08T07:33:26.370Z,0
2017-08-08T07:34:27.008Z,0
2017-08-08T07:35:27.639Z,0
2017-08-08T07:36:28.279Z,0
2017-08-08T07:37:28.918Z,0
2017-08-08T07:38:29.558Z,0
2017-08-08T07:39:30.245Z,0
2017-08-08T07:40:30.874Z,0
2017-08-08T07:41:31.717Z,0
2017-08-08T07:42:32.407Z,0
2017-08-08T07:43:33.037Z,0
2017-08-08T07:44:33.673Z,0
2017-08-08T07:45:34.306Z,0
2017-08-08T07:46:34.948Z,0
2017-08-08T07:47:35.579Z,0
2017-08-08T07:48:36.219Z,0
2017-08-08T07:49:36.856Z,0
2017-08-08T07:50:37.693Z,0
2017-08-08T07:51:38.336Z,0
2017-08-08T07:52:38.975Z,0
2017-08-08T07:53:39.609Z,0
2017-08-08T07:54:40.248Z,0
2017-08-08T07:55:40.885Z,0
2017-08-08T07:56:41.518Z,0
2017-08-08T07:57:42.150Z,0
2017-08-08T07:58:42.990Z,0
2017-08-08T07:59:43.631Z,0
2017-08-08T08:00:44.215Z,0
2017-08-08T08:01:44.851Z,0
2017-08-08T08:02:45.483Z,0
2017-08-08T08:03:46.122Z,0
2017-08-08T08:04:46.760Z,0
2017-08-08T08:05:47.390Z,0
2017-08-08T08:06:48.231Z,0
2017-08-08T08:07:48.864Z,0
2017-08-08T08:08:49.502Z,0
2017-08-08T08:09:50.134Z,0
2017-08-08T08:10:50.768Z,0
2017-08-08T08:11:51.403Z,0
2017-08-08T08:12:52.038Z,0
2017-08-08T08:13:52.672Z,0
2017-08-08T08:14:53.507Z,0
2017-08-08T08:15:54.146Z,0
2017-08-08T08:16:54.781Z,0
2017-08-08T08:17:55.414Z,0
2017-08-08T08:18:56.050Z,0
2017-08-08T08:19:56.691Z,0
2017-08-08T08:20:57.331Z,0
2017-08-08T08:21:58.025Z,0
2017-08-08T08:22:58.712Z,0
2017-08-08T08:23:59.500Z,0
2017-08-08T08:25:00.134Z,0
2017-08-08T08:26:00.768Z,0
2017-08-08T08:27:01.406Z,0
2017-08-08T08:28:02.042Z,0
2017-08-08T08:29:02.676Z,0
2017-08-08T08:30:03.313Z,0
2017-08-08T08:31:03.950Z,0
2017-08-08T08:32:04.784Z,0
2017-08-08T08:33:05.425Z,0
2017-08-08T08:34:06.057Z,0
2017-08-08T08:35:06.690Z,0
2017-08-08T08:36:07.327Z,0
2017-08-08T08:37:07.967Z,0
2017-08-08T08:38:08.599Z,0
2017-08-08T08:39:09.232Z,0
2017-08-08T08:40:10.177Z,0
2017-08-08T08:41:10.806Z,0
2017-08-08T08:42:11.441Z,0
2017-08-08T08:43:12.080Z,0
2017-08-08T08:44:12.722Z,0
2017-08-08T08:45:13.361Z,0
2017-08-08T08:46:13.989Z,0
2017-08-08T08:47:14.624Z,0
2017-08-08T08:48:15.658Z,0
2017-08-08T08:49:16.294Z,0
2017-08-08T08:50:16.926Z,0
2017-08-08T08:51:17.562Z,0
2017-08-08T08:52:18.197Z,0
2017-08-08T08:53:18.830Z,0
2017-08-08T08:54:19.465Z,0
2017-08-08T08:55:20.110Z,0
2017-08-08T08:56:20.940Z,0
2017-08-08T08:57:21.587Z,0
2017-08-08T08:58:22.229Z,0
2017-08-08T08:59:22.857Z,0
2017-08-08T09:00:23.492Z,0
2017-08-08T09:01:24.127Z,0
2017-08-08T09:02:24.769Z,0
2017-08-08T09:03:25.404Z,0
2017-08-08T09:04:26.048Z,0
2017-08-08T09:05:26.877Z,0
2017-08-08T09:06:27.528Z,0
2017-08-08T09:07:28.165Z,0
2017-08-08T09:08:28.796Z,0
2017-08-08T09:09:29.431Z,0
2017-08-08T09:10:30.065Z,0
2017-08-08T09:11:30.702Z,0
2017-08-08T09:12:31.340Z,0
2017-08-08T09:13:32.179Z,0
2017-08-08T09:14:32.811Z,0
2017-08-08T09:15:33.446Z,0
2017-08-08T09:16:34.086Z,0
2017-08-08T09:17:34.717Z,0
2017-08-08T09:18:35.352Z,0
2017-08-08T09:19:35.983Z,0
2017-08-08T09:20:36.619Z,0
2017-08-08T09:21:37.459Z,0
2017-08-08T09:22:38.095Z,50
2017-08-08T09:23:38.734Z,50
2017-08-08T09:24:39.380Z,55
2017-08-08T09:25:40.020Z,60
2017-08-08T09:26:40.661Z,60
2017-08-08T09:27:41.303Z,65
2017-08-08T09:28:41.937Z,65
2017-08-08T09:29:42.776Z,65
2017-08-08T09:30:43.421Z,65
2017-08-08T09:31:44.063Z,65
2017-08-08T09:32:44.699Z,65
2017-08-08T09:33:45.344Z,65
2017-08-08T09:34:45.980Z,65
2017-08-08T09:35:46.622Z,65
2017-08-08T09:36:47.259Z,65
2017-08-08T09:37:47.897Z,70
2017-08-08T09:38:48.742Z,70
2017-08-08T09:39:49.379Z,70
2017-08-08T09:40:50.017Z,70
2017-08-08T09:41:50.655Z,70
2017-08-08T09:42:51.299Z,70
2017-08-08T09:43:51.933Z,70
2017-08-08T09:44:52.580Z,70
2017-08-08T09:45:53.214Z,70
2017-08-08T09:46:54.059Z,70
2017-08-08T09:47:54.698Z,75
2017-08-08T09:48:55.342Z,75
2017-08-08T09:49:55.984Z,75
2017-08-08T09:50:56.619Z,75
2017-08-08T09:51:57.260Z,75
2017-08-08T09:52:57.898Z,75
2017-08-08T09:53:58.539Z,75
2017-08-08T09:54:59.481Z,75
2017-08-08T09:56:00.126Z,75
2017-08-08T09:57:00.767Z,75
2017-08-08T09:58:01.405Z,75
2017-08-08T09:59:02.044Z,75
2017-08-08T10:00:02.686Z,75
2017-08-08T10:01:03.334Z,75
2017-08-08T10:02:03.972Z,75
2017-08-08T10:03:04.820Z,75
2017-08-08T10:04:05.451Z,75
2017-08-08T10:05:06.089Z,75
2017-08-08T10:06:06.728Z,75
2017-08-08T10:07:07.374Z,75
2017-08-08T10:08:08.017Z,75
2017-08-08T10:09:08.657Z,75
2017-08-08T10:10:09.294Z,80
2017-08-08T10:11:10.088Z,80
2017-08-08T10:12:10.740Z,80
2017-08-08T10:13:11.373Z,80
2017-08-08T10:14:12.009Z,80
2017-08-08T10:15:12.648Z,80
2017-08-08T10:16:13.289Z,80
2017-08-08T10:17:13.933Z,80
2017-08-08T10:18:14.575Z,80
2017-08-08T10:19:15.210Z,80
2017-08-08T10:20:16.049Z,85
2017-08-08T10:21:16.687Z,85
2017-08-08T10:22:17.376Z,85
2017-08-08T10:23:18.021Z,85
2017-08-08T10:24:18.668Z,85
2017-08-08T10:25:19.308Z,85
2017-08-08T10:26:19.943Z,85
2017-08-08T10:27:20.583Z,85
2017-08-08T10:28:21.384Z,90
2017-08-08T10:29:22.074Z,85
2017-08-08T10:30:22.714Z,90
2017-08-08T10:31:23.358Z,90
2017-08-08T10:32:23.999Z,90
2017-08-08T10:33:24.638Z,90
2017-08-08T10:34:25.277Z,90
2017-08-08T10:35:25.923Z,90
2017-08-08T10:36:26.762Z,95
2017-08-08T10:37:27.455Z,95
2017-08-08T10:38:28.098Z,95
2017-08-08T10:39:28.738Z,95
2017-08-08T10:40:29.376Z,95
2017-08-08T10:41:30.023Z,95
2017-08-08T10:42:30.659Z,95
2017-08-08T10:43:31.303Z,95
2017-08-08T10:44:31.995Z,95
2017-08-08T10:45:32.636Z,95
2017-08-08T10:46:33.277Z,95
2017-08-08T10:47:33.917Z,95
2017-08-08T10:48:34.557Z,95
2017-08-08T10:49:35.197Z,95
2017-08-08T10:50:35.839Z,95
2017-08-08T10:51:36.436Z,95
2017-08-08T10:52:37.084Z,100
2017-08-08T10:53:37.925Z,100
2017-08-08T10:54:38.571Z,100
2017-08-08T10:55:39.267Z,100
2017-08-08T10:56:39.909Z,105
2017-08-08T10:57:40.557Z,105
2017-08-08T10:58:41.250Z,105
2017-08-08T10:59:41.898Z,105
2017-08-08T11:00:42.545Z,105
2017-08-08T11:01:43.334Z,110
2017-08-08T11:02:43.981Z,110
2017-08-08T11:03:44.620Z,110
2017-08-08T11:04:45.223Z,110
2017-08-08T11:05:45.871Z,110
2017-08-08T11:06:46.512Z,115
2017-08-08T11:07:47.163Z,115
2017-08-08T11:08:47.843Z,115
2017-08-08T11:09:48.791Z,115
2017-08-08T11:10:49.435Z,125
2017-08-08T11:11:50.082Z,125
2017-08-08T11:12:50.722Z,125
2017-08-08T11:13:51.373Z,125
2017-08-08T11:14:52.019Z,130
2017-08-08T11:15:52.667Z,125
2017-08-08T11:16:53.311Z,130
2017-08-08T11:17:54.156Z,140
2017-08-08T11:18:54.804Z,145
2017-08-08T11:19:55.444Z,435
2017-08-08T11:20:56.093Z,435
2017-08-08T11:21:56.739Z,995
2017-08-08T11:22:57.384Z,1225
2017-08-08T11:23:58.030Z,1220
2017-08-08T11:24:58.676Z,1235
2017-08-08T11:25:59.322Z,1260
2017-08-08T11:27:00.176Z,1375
2017-08-08T11:28:00.821Z,1375
2017-08-08T11:29:01.478Z,1280
2017-08-08T11:30:02.125Z,1235
2017-08-08T11:31:02.777Z,1360
2017-08-08T11:32:03.420Z,1350
2017-08-08T11:33:04.081Z,1385
2017-08-08T11:34:04.735Z,1390
2017-08-08T11:35:30.673Z,1325
2017-08-08T11:38:17.917Z,1375
2017-08-08T11:42:23.694Z,1390
2017-08-08T11:55:19.197Z,1475
2017-08-08T11:56:19.846Z,1420
2017-08-08T11:57:20.501Z,1465
2017-08-08T11:58:21.149Z,1495
2017-08-08T11:59:22.050Z,1460
2017-08-08T12:00:22.696Z,1515
2017-08-08T12:01:23.351Z,1580
2017-08-08T12:02:23.993Z,1520
2017-08-08T12:03:26.158Z,1505
2017-08-08T12:04:26.861Z,1490
2017-08-08T12:05:27.519Z,1420
2017-08-08T12:06:28.163Z,1445
2017-08-08T12:07:29.067Z,1530
2017-08-08T12:08:29.716Z,1465
2017-08-08T12:09:30.369Z,1430
2017-08-08T12:10:31.021Z,1470
2017-08-08T12:11:31.676Z,1515
2017-08-08T12:12:32.328Z,1455
2017-08-08T12:13:32.974Z,1470
2017-08-08T12:14:33.623Z,1480
2017-08-08T12:15:34.578Z,1460
2017-08-08T12:16:35.228Z,1540
2017-08-08T12:17:35.884Z,1530
2017-08-08T12:18:36.534Z,1505
2017-08-08T12:19:37.188Z,1415
2017-08-08T12:20:37.843Z,1435
2017-08-08T12:21:38.548Z,1505
2017-08-08T12:22:39.200Z,1415
2017-08-08T12:23:40.054Z,1495
2017-08-08T12:24:40.702Z,1475
2017-08-08T12:25:41.354Z,1420
2017-08-08T12:26:42.004Z,1490
2017-08-08T12:27:42.659Z,1460
2017-08-08T12:28:43.310Z,1435
2017-08-08T12:29:44.023Z,930
2017-08-08T12:30:44.669Z,270
2017-08-08T12:31:45.514Z,220
2017-08-08T12:32:46.176Z,205
2017-08-08T12:33:46.829Z,200
2017-08-08T12:34:47.472Z,195
2017-08-08T12:35:48.127Z,195
2017-08-08T12:36:48.774Z,195
2017-08-08T12:37:49.422Z,195
2017-08-08T12:38:50.071Z,195
2017-08-08T12:39:50.728Z,195
2017-08-08T12:40:51.526Z,200
2017-08-08T12:41:52.175Z,195
2017-08-08T12:42:52.829Z,195
2017-08-08T12:43:53.480Z,195
2017-08-08T12:44:54.132Z,200
2017-08-08T12:45:54.783Z,205
2017-08-08T12:46:55.440Z,210
2017-08-08T12:47:56.083Z,215
2017-08-08T12:48:56.938Z,235
2017-08-08T12:49:57.592Z,245
2017-08-08T12:50:58.244Z,425
2017-08-08T12:51:58.894Z,1115
2017-08-08T12:52:59.545Z,1415
2017-08-08T12:54:00.198Z,1470
2017-08-08T12:55:00.912Z,1425
2017-08-08T12:56:01.564Z,1385
2017-08-08T12:57:02.412Z,1545
2017-08-08T12:58:03.075Z,1535
2017-08-08T12:59:03.724Z,1475
2017-08-08T13:00:04.376Z,1435
2017-08-08T13:01:05.027Z,1425
2017-08-08T13:02:05.677Z,1450
2017-08-08T13:03:06.337Z,1475
2017-08-08T13:04:06.986Z,1515
2017-08-08T13:05:07.791Z,1475
2017-08-08T13:06:08.442Z,1435
2017-08-08T13:07:09.093Z,1480
2017-08-08T13:08:09.747Z,1455
2017-08-08T13:09:10.402Z,1520
2017-08-08T13:10:11.057Z,1440
2017-08-08T13:11:11.707Z,1380
2017-08-08T13:12:12.357Z,1405
2017-08-08T13:13:13.018Z,1445
2017-08-08T13:14:13.971Z,1455
2017-08-08T13:15:14.628Z,1470
2017-08-08T13:16:15.281Z,1505
2017-08-08T13:17:15.935Z,1470
2017-08-08T13:18:16.582Z,1455
2017-08-08T13:19:17.234Z,1440
2017-08-08T13:20:17.900Z,1380
2017-08-08T13:21:18.545Z,1400
2017-08-08T13:22:19.446Z,1400
2017-08-08T13:23:20.107Z,1320
2017-08-08T13:24:20.755Z,1260
2017-08-08T13:25:21.416Z,1310
2017-08-08T13:26:22.067Z,1340
2017-08-08T13:27:22.723Z,1370
2017-08-08T13:28:23.372Z,1375
2017-08-08T13:29:24.024Z,1395
2017-08-08T13:30:24.876Z,1380
2017-08-08T13:31:25.527Z,1320
2017-08-08T13:32:26.180Z,1310
2017-08-08T13:33:26.843Z,1370
2017-08-08T13:34:27.496Z,1375
2017-08-08T13:35:28.154Z,1365
2017-08-08T13:36:28.804Z,1415
2017-08-08T13:37:29.461Z,1405
2017-08-08T13:38:30.316Z,1375
2017-08-08T13:39:30.967Z,1375
2017-08-08T13:40:31.618Z,1400
2017-08-08T13:41:32.269Z,1415
2017-08-08T13:42:32.923Z,1445
2017-08-08T13:43:33.578Z,1385
2017-08-08T13:44:34.230Z,1315
2017-08-08T13:45:34.887Z,1315
2017-08-08T13:46:35.738Z,1340
2017-08-08T13:47:36.391Z,1275
2017-08-08T13:48:37.045Z,1065
2017-08-08T13:49:37.756Z,1070
2017-08-08T13:50:38.407Z,1155
2017-08-08T13:51:39.057Z,1115
2017-08-08T13:52:39.712Z,1130
2017-08-08T13:53:40.421Z,1055
2017-08-08T13:54:41.070Z,970
2017-08-08T13:55:42.025Z,910
2017-08-08T13:56:42.677Z,860
2017-08-08T13:57:43.335Z,780
2017-08-08T13:58:43.984Z,680
2017-08-08T13:59:44.639Z,590
2017-08-08T14:00:45.293Z,495
2017-08-08T14:01:45.941Z,450
2017-08-08T14:02:46.598Z,400
2017-08-08T14:03:47.454Z,370
2017-08-08T14:04:48.105Z,335
2017-08-08T14:05:48.757Z,315
2017-08-08T14:06:49.411Z,305
2017-08-08T14:07:50.061Z,300
2017-08-08T14:08:50.711Z,290
2017-08-08T14:09:51.362Z,275
2017-08-08T14:10:52.014Z,275
2017-08-08T14:11:52.875Z,270
2017-08-08T14:12:53.520Z,275
2017-08-08T14:13:54.176Z,270
2017-08-08T14:14:54.826Z,265
2017-08-08T14:15:55.478Z,260
2017-08-08T14:16:56.127Z,255
2017-08-08T14:17:56.774Z,260
2017-08-08T14:18:57.430Z,255
2017-08-08T14:19:58.282Z,255
2017-08-08T14:20:58.934Z,255
2017-08-08T14:21:59.581Z,255
2017-08-08T14:23:00.239Z,260
2017-08-08T14:24:00.887Z,255
2017-08-08T14:25:01.540Z,250
2017-08-08T14:26:02.238Z,255
2017-08-08T14:27:02.940Z,255
2017-08-08T14:28:03.597Z,255
2017-08-08T14:29:04.444Z,255
2017-08-08T14:30:05.154Z,255
2017-08-08T14:31:05.800Z,255
2017-08-08T14:32:06.456Z,260
2017-08-08T14:33:07.101Z,255
2017-08-08T14:34:07.752Z,260
2017-08-08T14:35:08.405Z,275
2017-08-08T14:36:09.104Z,260
2017-08-08T14:37:10.203Z,260
2017-08-08T14:38:10.858Z,255
2017-08-08T14:39:11.510Z,260
2017-08-08T14:40:12.167Z,260
2017-08-08T14:41:12.822Z,285
2017-08-08T14:42:13.471Z,265
2017-08-08T14:43:14.123Z,265
2017-08-08T14:44:14.772Z,275
2017-08-08T14:45:15.625Z,275
2017-08-08T14:46:16.275Z,280
2017-08-08T14:47:16.929Z,300
2017-08-08T14:48:17.576Z,330
2017-08-08T14:49:18.230Z,360
2017-08-08T14:50:18.878Z,440
2017-08-08T14:51:19.535Z,515
2017-08-08T14:52:20.183Z,605
2017-08-08T14:53:21.035Z,645
2017-08-08T14:54:21.635Z,710
2017-08-08T14:55:22.284Z,575
2017-08-08T14:56:22.948Z,345
2017-08-08T14:57:23.588Z,240
2017-08-08T14:58:24.240Z,235
2017-08-08T14:59:24.891Z,235
2017-08-08T15:00:25.546Z,230
2017-08-08T15:01:26.394Z,230
2017-08-08T15:02:27.041Z,235
2017-08-08T15:03:27.698Z,240
2017-08-08T15:04:28.358Z,245
2017-08-08T15:05:29.008Z,250
2017-08-08T15:06:29.666Z,320
2017-08-08T15:07:30.317Z,505
2017-08-08T15:08:30.965Z,740
2017-08-08T15:09:31.613Z,860
2017-08-08T15:10:32.562Z,900
2017-08-08T15:11:33.212Z,905
2017-08-08T15:12:33.866Z,890
2017-08-08T15:13:34.513Z,895
2017-08-08T15:14:35.161Z,885
2017-08-08T15:15:35.812Z,850
2017-08-08T15:16:36.467Z,840
2017-08-08T15:17:37.116Z,815
2017-08-08T15:18:37.920Z,830
2017-08-08T15:19:38.572Z,820
2017-08-08T15:20:39.223Z,785
2017-08-08T15:21:39.877Z,770
2017-08-08T15:22:40.530Z,750
2017-08-08T15:23:41.184Z,750
2017-08-08T15:24:41.835Z,745
2017-08-08T15:25:42.486Z,685
2017-08-08T15:26:43.331Z,715
2017-08-08T15:27:43.983Z,740
2017-08-08T15:28:44.632Z,720
2017-08-08T15:29:45.284Z,715
2017-08-08T15:30:45.935Z,715
2017-08-08T15:31:46.576Z,715
2017-08-08T15:32:47.223Z,690
2017-08-08T15:33:47.872Z,665
2017-08-08T15:34:48.721Z,665
2017-08-08T15:35:49.375Z,645
2017-08-08T15:36:50.022Z,605
2017-08-08T15:37:50.674Z,605
2017-08-08T15:38:51.314Z,590
2017-08-08T15:39:51.961Z,585
2017-08-08T15:40:52.613Z,580
2017-08-08T15:41:53.262Z,580
2017-08-08T15:42:53.913Z,560
2017-08-08T15:43:54.707Z,560
2017-08-08T15:44:55.353Z,560
2017-08-08T15:45:56.007Z,550
2017-08-08T15:46:56.658Z,550
2017-08-08T15:47:57.306Z,490
2017-08-08T15:48:57.954Z,355
2017-08-08T15:49:58.599Z,235
2017-08-08T15:50:59.243Z,185
2017-08-08T15:52:00.090Z,180
2017-08-08T15:53:00.740Z,175
2017-08-08T15:54:01.390Z,170
2017-08-08T15:55:02.040Z,165
2017-08-08T15:56:02.682Z,160
2017-08-08T15:57:03.329Z,160
2017-08-08T15:58:03.980Z,155
2017-08-08T15:59:04.622Z,150